PWSweather.com
Personal Weather Stations
Station Observations
KMAMEDFI2
Medfield, MA 02052

Medfield, MA 02052

Lat: 42.1900822, Lon: -71.3296889

Elevation: 138

Station Type: Rainwise WS MK-III

http://www.medfieldweather.com

Latest ConditionsUpdated 8:50:00 PM EST Sunday, Feb 18, 2018
Currently Today's Max Today's Min Today's Average
Temperature 27.9°F-2.3°C 44.7°F7.1°C 27.9°F-2.3°C 35.3°F1.8°C
Dew Point 24.3°F-4.3°C 32.9°F0.5°C 24.3°F-4.3°C 28.1°F-2.2°C
Winds Calm Calm 11.5 mph WSW18.5 kmh WSW - 2.3 mph 3.7 kmh
Wind Gusts -- 20.7 mph33.3 kmh - -
Humidity 86% 95% 47% 77%
Pressure 30.44 in1030.8 mb 30.44 in1030.8 mb 29.83 in1010.2 mb -
Precipitation - 0.40 in10.2 mm - -
Hour Temp Dew Point Humidity Winds Wind Gusts Pressure Precip Precip Rate Daily Precip Total
08:50 PM 27.9°F-2.3°C 24.3°F-4.3°C 86% Calm Calm -- 30.44 in1030.8 mb - 0.00 in0.0 mm 0.40 in10.2 mm
08:40 PM 28.2°F-2.1°C 24.8°F-4.0°C 87% Calm Calm -- 30.44 in1030.8 mb - 0.00 in0.0 mm 0.40 in10.2 mm
08:30 PM 28.8°F-1.8°C 24.9°F-3.9°C 85% Calm Calm -- 30.43 in1030.5 mb - 0.00 in0.0 mm 0.40 in10.2 mm
08:20 PM 29.1°F-1.6°C 25.2°F-3.8°C 85% Calm Calm -- 30.43 in1030.5 mb - 0.00 in0.0 mm 0.40 in10.2 mm
08:10 PM 29.4°F-1.4°C 25.8°F-3.4°C 86% Calm Calm -- 30.42 in1030.1 mb - 0.00 in0.0 mm 0.40 in10.2 mm
08:00 PM 29.6°F-1.3°C 26.0°F-3.3°C 86% Calm Calm -- 30.42 in1030.1 mb - 0.00 in0.0 mm 0.40 in10.2 mm
07:50 PM 30.1°F-1.1°C 26.2°F-3.2°C 85% Calm Calm -- 30.41 in1029.8 mb - 0.00 in0.0 mm 0.40 in10.2 mm
07:40 PM 30.6°F-0.8°C 26.7°F-2.9°C 85% Calm Calm -- 30.40 in1029.5 mb - 0.00 in0.0 mm 0.40 in10.2 mm
07:30 PM 30.8°F-0.7°C 26.9°F-2.8°C 85% Calm Calm -- 30.40 in1029.5 mb - 0.00 in0.0 mm 0.40 in10.2 mm
07:20 PM 31.4°F-0.3°C 26.9°F-2.8°C 83% Calm Calm 2.3 mph3.7 kmh 30.40 in1029.5 mb - 0.00 in0.0 mm 0.40 in10.2 mm
07:10 PM 32.0°F0.0°C 26.8°F-2.9°C 81% Calm Calm -- 30.40 in1029.5 mb - 0.00 in0.0 mm 0.40 in10.2 mm
07:00 PM 32.6°F0.3°C 26.5°F-3.1°C 78% Calm Calm 2.3 mph3.7 kmh 30.40 in1029.5 mb - 0.00 in0.0 mm 0.40 in10.2 mm
06:50 PM 33.6°F0.9°C 26.9°F-2.8°C 76% 1.2 mph WNW1.9 kmh WNW 1.2 mph1.9 kmh 30.40 in1029.5 mb - 0.00 in0.0 mm 0.40 in10.2 mm
06:40 PM 34.7°F1.5°C 26.6°F-3.0°C 72% 1.2 mph WNW1.9 kmh WNW 2.3 mph3.7 kmh 30.39 in1029.1 mb - 0.00 in0.0 mm 0.40 in10.2 mm
06:30 PM 35.8°F2.1°C 26.2°F-3.2°C 68% 1.2 mph SW1.9 kmh SW 1.2 mph1.9 kmh 30.38 in1028.8 mb - 0.00 in0.0 mm 0.40 in10.2 mm
06:20 PM 36.9°F2.7°C 26.2°F-3.2°C 65% 2.3 mph SW3.7 kmh SW 2.3 mph3.7 kmh 30.38 in1028.8 mb - 0.00 in0.0 mm 0.40 in10.2 mm
06:10 PM 37.2°F2.9°C 26.5°F-3.1°C 65% 2.3 mph NW3.7 kmh NW 2.3 mph3.7 kmh 30.37 in1028.4 mb - 0.00 in0.0 mm 0.40 in10.2 mm
06:00 PM 37.7°F3.2°C 26.6°F-3.0°C 64% 1.2 mph W1.9 kmh W 2.3 mph3.7 kmh 30.36 in1028.1 mb - 0.00 in0.0 mm 0.40 in10.2 mm
05:50 PM 38.5°F3.6°C 25.8°F-3.4°C 60% 1.2 mph W1.9 kmh W 2.3 mph3.7 kmh 30.35 in1027.8 mb - 0.00 in0.0 mm 0.40 in10.2 mm
05:40 PM 38.5°F3.6°C 25.8°F-3.4°C 60% 2.3 mph W3.7 kmh W 2.3 mph3.7 kmh 30.34 in1027.4 mb - 0.00 in0.0 mm 0.40 in10.2 mm
05:30 PM 38.6°F3.7°C 26.7°F-2.9°C 62% Calm Calm 2.3 mph3.7 kmh 30.34 in1027.4 mb - 0.00 in0.0 mm 0.40 in10.2 mm
05:20 PM 39.3°F4.1°C 24.9°F-3.9°C 56% 3.5 mph SW5.6 kmh SW 2.3 mph3.7 kmh 30.34 in1027.4 mb - 0.00 in0.0 mm 0.40 in10.2 mm
05:10 PM 39.9°F4.4°C 26.3°F-3.2°C 58% 2.3 mph NW3.7 kmh NW 5.8 mph9.3 kmh 30.33 in1027.1 mb - 0.00 in0.0 mm 0.40 in10.2 mm
05:00 PM 40.5°F4.7°C 25.1°F-3.8°C 54% 2.3 mph W3.7 kmh W 2.3 mph3.7 kmh 30.33 in1027.1 mb - 0.00 in0.0 mm 0.40 in10.2 mm
04:50 PM 41.3°F5.2°C 25.0°F-3.9°C 52% 2.3 mph WSW3.7 kmh WSW 2.3 mph3.7 kmh 30.32 in1026.8 mb - 0.01 in0.3 mm 0.40 in10.2 mm
04:40 PM 41.9°F5.5°C 25.1°F-3.8°C 51% 3.5 mph WSW5.6 kmh WSW 5.8 mph9.3 kmh 30.31 in1026.4 mb - 0.00 in0.0 mm 0.39 in9.9 mm
04:30 PM 42.4°F5.8°C 26.0°F-3.3°C 52% 2.3 mph WSW3.7 kmh WSW 6.9 mph11.1 kmh 30.31 in1026.4 mb - 0.00 in0.0 mm 0.39 in9.9 mm
04:20 PM 42.9°F6.1°C 25.5°F-3.6°C 50% 4.6 mph NW7.4 kmh NW 5.8 mph9.3 kmh 30.30 in1026.1 mb - 0.00 in0.0 mm 0.39 in9.9 mm
04:10 PM 43.3°F6.3°C 26.9°F-2.8°C 52% 4.6 mph WSW7.4 kmh WSW 8.1 mph13.0 kmh 30.30 in1026.1 mb - 0.00 in0.0 mm 0.39 in9.9 mm
04:00 PM 43.4°F6.3°C 25.0°F-3.9°C 48% 5.8 mph WSW9.3 kmh WSW 9.2 mph14.8 kmh 30.30 in1026.1 mb - 0.00 in0.0 mm 0.39 in9.9 mm
03:50 PM 43.6°F6.4°C 24.7°F-4.1°C 47% 2.3 mph N3.7 kmh N 2.3 mph3.7 kmh 30.30 in1026.1 mb - 0.01 in0.3 mm 0.39 in9.9 mm
03:40 PM 43.7°F6.5°C 25.3°F-3.7°C 48% 8.1 mph NW13.0 kmh NW 8.1 mph13.0 kmh 30.30 in1026.1 mb - 0.00 in0.0 mm 0.38 in9.7 mm
03:30 PM 43.6°F6.4°C 26.6°F-3.0°C 51% 3.5 mph WNW5.6 kmh WNW 9.2 mph14.8 kmh 30.29 in1025.7 mb - 0.00 in0.0 mm 0.38 in9.7 mm
03:20 PM 43.6°F6.4°C 26.2°F-3.2°C 50% 4.6 mph WSW7.4 kmh WSW 11.5 mph18.5 kmh 30.29 in1025.7 mb - 0.01 in0.3 mm 0.38 in9.7 mm
03:10 PM 43.8°F6.6°C 25.9°F-3.4°C 49% 6.9 mph WSW11.1 kmh WSW 9.2 mph14.8 kmh 30.29 in1025.7 mb - 0.01 in0.3 mm 0.37 in9.4 mm
03:00 PM 43.6°F6.4°C 26.2°F-3.2°C 50% 8.1 mph SW13.0 kmh SW 9.2 mph14.8 kmh 30.29 in1025.7 mb - 0.00 in0.0 mm 0.36 in9.1 mm
02:50 PM 44.2°F6.8°C 26.7°F-2.9°C 50% 4.6 mph S7.4 kmh S 6.9 mph11.1 kmh 30.29 in1025.7 mb - 0.01 in0.3 mm 0.36 in9.1 mm
02:40 PM 44.6°F7.0°C 26.1°F-3.3°C 48% 2.3 mph SW3.7 kmh SW 2.3 mph3.7 kmh 30.28 in1025.4 mb - 0.01 in0.3 mm 0.35 in8.9 mm
02:30 PM 44.7°F7.1°C 26.7°F-2.9°C 49% 4.6 mph NNW7.4 kmh NNW 11.5 mph18.5 kmh 30.28 in1025.4 mb - 0.02 in0.5 mm 0.34 in8.6 mm
02:20 PM 44.3°F6.8°C 26.8°F-2.9°C 50% 5.8 mph NW9.3 kmh NW 8.1 mph13.0 kmh 30.27 in1025.1 mb - 0.02 in0.5 mm 0.33 in8.4 mm
02:10 PM 44.1°F6.7°C 26.1°F-3.3°C 49% 1.2 mph NE1.9 kmh NE 5.8 mph9.3 kmh 30.26 in1024.7 mb - 0.01 in0.3 mm 0.31 in7.9 mm
02:00 PM 44.0°F6.7°C 27.0°F-2.8°C 51% 3.5 mph WSW5.6 kmh WSW 9.2 mph14.8 kmh 30.25 in1024.4 mb - 0.02 in0.5 mm 0.30 in7.6 mm
01:50 PM 43.8°F6.6°C 27.3°F-2.6°C 52% 5.8 mph W9.3 kmh W 6.9 mph11.1 kmh 30.25 in1024.4 mb - 0.01 in0.3 mm 0.28 in7.1 mm
01:40 PM 43.9°F6.6°C 26.9°F-2.8°C 51% 3.5 mph WNW5.6 kmh WNW 3.5 mph5.6 kmh 30.24 in1024.0 mb - 0.01 in0.3 mm 0.27 in6.9 mm
01:30 PM 43.8°F6.6°C 26.8°F-2.9°C 51% 3.5 mph WSW5.6 kmh WSW 3.5 mph5.6 kmh 30.23 in1023.7 mb - 0.02 in0.5 mm 0.26 in6.6 mm
01:20 PM 43.1°F6.2°C 26.6°F-3.0°C 52% 2.3 mph WSW3.7 kmh WSW 6.9 mph11.1 kmh 30.23 in1023.7 mb - 0.01 in0.3 mm 0.24 in6.1 mm
01:10 PM 43.2°F6.2°C 27.2°F-2.7°C 53% 6.9 mph WSW11.1 kmh WSW 17.3 mph27.8 kmh 30.22 in1023.4 mb - 0.02 in0.5 mm 0.23 in5.8 mm
01:00 PM 42.9°F6.1°C 26.9°F-2.8°C 53% 2.3 mph NE3.7 kmh NE 3.5 mph5.6 kmh 30.21 in1023.0 mb - 0.02 in0.5 mm 0.22 in5.6 mm
12:50 PM 42.4°F5.8°C 27.3°F-2.6°C 55% 3.5 mph NE5.6 kmh NE 3.5 mph5.6 kmh 30.21 in1023.0 mb - 0.02 in0.5 mm 0.20 in5.1 mm
12:40 PM 42.1°F5.6°C 27.1°F-2.7°C 55% 4.6 mph NW7.4 kmh NW 9.2 mph14.8 kmh 30.20 in1022.7 mb - 0.02 in0.5 mm 0.19 in4.8 mm
12:30 PM 42.1°F5.6°C 27.5°F-2.5°C 56% 5.8 mph WNW9.3 kmh WNW 6.9 mph11.1 kmh 30.19 in1022.4 mb - 0.02 in0.5 mm 0.17 in4.3 mm
12:20 PM 42.4°F5.8°C 28.2°F-2.1°C 57% 3.5 mph S5.6 kmh S 3.5 mph5.6 kmh 30.18 in1022.0 mb - 0.02 in0.5 mm 0.16 in4.1 mm
12:10 PM 42.2°F5.7°C 28.0°F-2.2°C 57% 3.5 mph NNE5.6 kmh NNE 8.1 mph13.0 kmh 30.17 in1021.7 mb - 0.02 in0.5 mm 0.14 in3.6 mm
12:00 PM 41.1°F5.1°C 27.4°F-2.6°C 58% 2.3 mph SW3.7 kmh SW 2.3 mph3.7 kmh 30.16 in1021.3 mb - 0.02 in0.5 mm 0.12 in3.0 mm
11:50 AM 41.2°F5.1°C 27.9°F-2.3°C 59% 3.5 mph E5.6 kmh E 2.3 mph3.7 kmh 30.15 in1021.0 mb - 0.02 in0.5 mm 0.10 in2.5 mm
11:40 AM 41.2°F5.1°C 29.2°F-1.6°C 62% 2.3 mph NW3.7 kmh NW 5.8 mph9.3 kmh 30.16 in1021.3 mb - 0.02 in0.5 mm 0.08 in2.0 mm
11:30 AM 40.5°F4.7°C 28.9°F-1.7°C 63% 6.9 mph WSW11.1 kmh WSW 9.2 mph14.8 kmh 30.15 in1021.0 mb - 0.02 in0.5 mm 0.06 in1.5 mm
11:20 AM 40.1°F4.5°C 28.5°F-1.9°C 63% 8.1 mph N13.0 kmh N 20.7 mph33.3 kmh 30.17 in1021.7 mb - 0.03 in0.8 mm 0.04 in1.0 mm
11:10 AM 39.8°F4.3°C 29.7°F-1.3°C 67% 11.5 mph WSW18.5 kmh WSW 18.4 mph29.6 kmh 30.18 in1022.0 mb - 0.01 in0.3 mm 0.01 in0.3 mm
11:00 AM 39.4°F4.1°C 29.7°F-1.3°C 68% 8.1 mph W13.0 kmh W 5.8 mph9.3 kmh 30.17 in1021.7 mb - 0.00 in0.0 mm 0.00 in0.0 mm
10:50 AM 39.2°F4.0°C 31.9°F-0.1°C 75% 5.8 mph WNW9.3 kmh WNW 13.8 mph22.2 kmh 30.18 in1022.0 mb - 0.00 in0.0 mm 0.00 in0.0 mm
10:40 AM 39.3°F4.1°C 32.0°F0.0°C 75% 6.9 mph WSW11.1 kmh WSW 11.5 mph18.5 kmh 30.18 in1022.0 mb - 0.00 in0.0 mm 0.00 in0.0 mm
10:30 AM 38.6°F3.7°C 31.0°F-0.6°C 74% 9.2 mph W14.8 kmh W 18.4 mph29.6 kmh 30.16 in1021.3 mb - 0.00 in0.0 mm 0.00 in0.0 mm
10:20 AM 37.9°F3.3°C 31.7°F-0.2°C 78% 5.8 mph WSW9.3 kmh WSW 10.4 mph16.7 kmh 30.14 in1020.7 mb - 0.00 in0.0 mm 0.00 in0.0 mm
10:10 AM 37.5°F3.1°C 31.6°F-0.2°C 79% 10.4 mph WNW16.7 kmh WNW 16.1 mph25.9 kmh 30.13 in1020.3 mb - 0.00 in0.0 mm 0.00 in0.0 mm
10:00 AM 36.7°F2.6°C 31.4°F-0.3°C 81% 5.8 mph WSW9.3 kmh WSW 5.8 mph9.3 kmh 30.13 in1020.3 mb - 0.00 in0.0 mm 0.00 in0.0 mm
09:50 AM 36.3°F2.4°C 32.2°F0.1°C 85% 9.2 mph W14.8 kmh W 16.1 mph25.9 kmh 30.11 in1019.6 mb - 0.00 in0.0 mm 0.00 in0.0 mm
09:40 AM 35.8°F2.1°C 32.0°F0.0°C 86% 4.6 mph WSW7.4 kmh WSW 9.2 mph14.8 kmh 30.10 in1019.3 mb - 0.00 in0.0 mm 0.00 in0.0 mm
09:30 AM 35.5°F1.9°C 32.3°F0.2°C 88% 9.2 mph WSW14.8 kmh WSW 9.2 mph14.8 kmh 30.09 in1019.0 mb - 0.00 in0.0 mm 0.00 in0.0 mm
09:20 AM 34.9°F1.6°C 32.3°F0.2°C 90% 5.8 mph WNW9.3 kmh WNW 9.2 mph14.8 kmh 30.08 in1018.6 mb - 0.00 in0.0 mm 0.00 in0.0 mm
09:10 AM 34.4°F1.3°C 32.9°F0.5°C 94% 3.5 mph SW5.6 kmh SW 5.8 mph9.3 kmh 30.07 in1018.3 mb - 0.00 in0.0 mm 0.00 in0.0 mm
09:00 AM 33.8°F1.0°C 32.5°F0.3°C 95% 4.6 mph WSW7.4 kmh WSW 3.5 mph5.6 kmh 30.06 in1017.9 mb - 0.00 in0.0 mm 0.00 in0.0 mm
08:40 AM 33.0°F0.6°C 31.8°F-0.1°C 95% 8.1 mph NW13.0 kmh NW 13.8 mph22.2 kmh 30.03 in1016.9 mb - 0.00 in0.0 mm 0.00 in0.0 mm
08:30 AM 32.5°F0.3°C 31.3°F-0.4°C 95% 3.5 mph WSW5.6 kmh WSW 8.1 mph13.0 kmh 30.03 in1016.9 mb - 0.00 in0.0 mm 0.00 in0.0 mm
08:20 AM 32.0°F0.0°C 30.8°F-0.7°C 95% 3.5 mph W5.6 kmh W 8.1 mph13.0 kmh 30.02 in1016.6 mb - 0.00 in0.0 mm 0.00 in0.0 mm
08:10 AM 31.4°F-0.3°C 30.1°F-1.1°C 95% 2.3 mph W3.7 kmh W 5.8 mph9.3 kmh 30.00 in1015.9 mb - 0.00 in0.0 mm 0.00 in0.0 mm
08:00 AM 30.9°F-0.6°C 29.4°F-1.4°C 94% Calm Calm 2.3 mph3.7 kmh 29.99 in1015.6 mb - 0.00 in0.0 mm 0.00 in0.0 mm
07:50 AM 30.3°F-0.9°C 28.8°F-1.8°C 94% Calm Calm -- 29.98 in1015.2 mb - 0.00 in0.0 mm 0.00 in0.0 mm
07:40 AM 29.6°F-1.3°C 28.1°F-2.2°C 94% Calm Calm -- 29.97 in1014.9 mb - 0.00 in0.0 mm 0.00 in0.0 mm
07:30 AM 29.4°F-1.4°C 27.9°F-2.3°C 94% Calm Calm -- 29.96 in1014.6 mb - 0.00 in0.0 mm 0.00 in0.0 mm
07:20 AM 29.3°F-1.5°C 27.8°F-2.3°C 94% Calm Calm -- 29.96 in1014.6 mb - 0.00 in0.0 mm 0.00 in0.0 mm
07:10 AM 29.2°F-1.6°C 27.7°F-2.4°C 94% Calm Calm -- 29.95 in1014.2 mb - 0.00 in0.0 mm 0.00 in0.0 mm
07:00 AM 29.4°F-1.4°C 27.9°F-2.3°C 94% Calm Calm -- 29.94 in1013.9 mb - 0.00 in0.0 mm 0.00 in0.0 mm
06:50 AM 29.8°F-1.2°C 28.3°F-2.1°C 94% Calm Calm -- 29.93 in1013.5 mb - 0.00 in0.0 mm 0.00 in0.0 mm
06:40 AM 30.2°F-1.0°C 28.7°F-1.8°C 94% Calm Calm -- 29.92 in1013.2 mb - 0.00 in0.0 mm 0.00 in0.0 mm
06:30 AM 30.4°F-0.9°C 28.9°F-1.7°C 94% Calm Calm -- 29.92 in1013.2 mb - 0.00 in0.0 mm 0.00 in0.0 mm
06:20 AM 30.5°F-0.8°C 29.0°F-1.7°C 94% Calm Calm -- 29.92 in1013.2 mb - 0.00 in0.0 mm 0.00 in0.0 mm
06:10 AM 30.6°F-0.8°C 29.1°F-1.6°C 94% Calm Calm -- 29.91 in1012.9 mb - 0.00 in0.0 mm 0.00 in0.0 mm
06:00 AM 30.6°F-0.8°C 29.1°F-1.6°C 94% Calm Calm -- 29.90 in1012.5 mb - 0.00 in0.0 mm 0.00 in0.0 mm
05:50 AM 30.5°F-0.8°C 29.0°F-1.7°C 94% Calm Calm -- 29.89 in1012.2 mb - 0.00 in0.0 mm 0.00 in0.0 mm
05:40 AM 30.6°F-0.8°C 29.1°F-1.6°C 94% Calm Calm -- 29.89 in1012.2 mb - 0.00 in0.0 mm 0.00 in0.0 mm
05:30 AM 30.6°F-0.8°C 29.1°F-1.6°C 94% Calm Calm -- 29.88 in1011.9 mb - 0.00 in0.0 mm 0.00 in0.0 mm
05:20 AM 30.7°F-0.7°C 29.2°F-1.6°C 94% Calm Calm -- 29.87 in1011.5 mb - 0.00 in0.0 mm 0.00 in0.0 mm
05:10 AM 30.7°F-0.7°C 29.2°F-1.6°C 94% Calm Calm -- 29.87 in1011.5 mb - 0.00 in0.0 mm 0.00 in0.0 mm
05:00 AM 30.8°F-0.7°C 29.3°F-1.5°C 94% Calm Calm -- 29.86 in1011.2 mb - 0.00 in0.0 mm 0.00 in0.0 mm
04:50 AM 30.8°F-0.7°C 29.3°F-1.5°C 94% Calm Calm -- 29.86 in1011.2 mb - 0.00 in0.0 mm 0.00 in0.0 mm
04:40 AM 30.8°F-0.7°C 29.3°F-1.5°C 94% Calm Calm -- 29.85 in1010.8 mb - 0.00 in0.0 mm 0.00 in0.0 mm
04:30 AM 30.7°F-0.7°C 29.2°F-1.6°C 94% Calm Calm -- 29.85 in1010.8 mb - 0.00 in0.0 mm 0.00 in0.0 mm
04:20 AM 30.7°F-0.7°C 29.2°F-1.6°C 94% Calm Calm -- 29.84 in1010.5 mb - 0.00 in0.0 mm 0.00 in0.0 mm
04:10 AM 30.7°F-0.7°C 29.2°F-1.6°C 94% Calm Calm -- 29.84 in1010.5 mb - 0.00 in0.0 mm 0.00 in0.0 mm
04:00 AM 30.7°F-0.7°C 29.2°F-1.6°C 94% Calm Calm -- 29.84 in1010.5 mb - 0.00 in0.0 mm 0.00 in0.0 mm
03:50 AM 30.6°F-0.8°C 29.1°F-1.6°C 94% Calm Calm -- 29.83 in1010.2 mb - 0.00 in0.0 mm 0.00 in0.0 mm
03:40 AM 30.6°F-0.8°C 29.1°F-1.6°C 94% Calm Calm -- 29.83 in1010.2 mb - 0.00 in0.0 mm 0.00 in0.0 mm
03:30 AM 30.6°F-0.8°C 29.1°F-1.6°C 94% Calm Calm -- 29.83 in1010.2 mb - 0.00 in0.0 mm 0.00 in0.0 mm
03:20 AM 30.6°F-0.8°C 29.1°F-1.6°C 94% Calm Calm -- 29.85 in1010.8 mb - 0.00 in0.0 mm 0.00 in0.0 mm
03:10 AM 30.5°F-0.8°C 29.0°F-1.7°C 94% Calm Calm -- 29.85 in1010.8 mb - 0.00 in0.0 mm 0.00 in0.0 mm
03:00 AM 30.5°F-0.8°C 29.0°F-1.7°C 94% Calm Calm -- 29.84 in1010.5 mb - 0.00 in0.0 mm 0.00 in0.0 mm
02:50 AM 30.5°F-0.8°C 28.9°F-1.7°C 94% Calm Calm -- 29.85 in1010.8 mb - 0.00 in0.0 mm 0.00 in0.0 mm
02:40 AM 30.5°F-0.8°C 29.0°F-1.7°C 94% Calm Calm -- 29.86 in1011.2 mb - 0.00 in0.0 mm 0.00 in0.0 mm
02:30 AM 30.5°F-0.8°C 29.0°F-1.7°C 94% Calm Calm -- 29.87 in1011.5 mb - 0.00 in0.0 mm 0.00 in0.0 mm
02:20 AM 30.5°F-0.8°C 28.9°F-1.7°C 94% Calm Calm -- 29.88 in1011.9 mb - 0.00 in0.0 mm 0.00 in0.0 mm
02:10 AM 30.4°F-0.9°C 28.9°F-1.7°C 94% Calm Calm -- 29.89 in1012.2 mb - 0.00 in0.0 mm 0.00 in0.0 mm
02:00 AM 30.4°F-0.9°C 28.9°F-1.7°C 94% Calm Calm -- 29.89 in1012.2 mb - 0.00 in0.0 mm 0.00 in0.0 mm
01:50 AM 30.4°F-0.9°C 28.9°F-1.7°C 94% Calm Calm -- 29.90 in1012.5 mb - 0.00 in0.0 mm 0.00 in0.0 mm
01:40 AM 30.4°F-0.9°C 28.9°F-1.7°C 94% Calm Calm -- 29.91 in1012.9 mb - 0.00 in0.0 mm 0.00 in0.0 mm
01:30 AM 30.5°F-0.8°C 29.0°F-1.7°C 94% Calm Calm -- 29.92 in1013.2 mb - 0.00 in0.0 mm 0.00 in0.0 mm
01:20 AM 30.5°F-0.8°C 29.0°F-1.7°C 94% Calm Calm -- 29.92 in1013.2 mb - 0.00 in0.0 mm 0.00 in0.0 mm
01:10 AM 30.5°F-0.8°C 29.0°F-1.7°C 94% Calm Calm -- 29.93 in1013.5 mb - 0.00 in0.0 mm 0.00 in0.0 mm
01:00 AM 30.4°F-0.9°C 28.9°F-1.7°C 94% Calm Calm -- 29.94 in1013.9 mb - 0.00 in0.0 mm 0.00 in0.0 mm
12:50 AM 30.4°F-0.9°C 28.9°F-1.7°C 94% Calm Calm -- 29.95 in1014.2 mb - 0.00 in0.0 mm 0.00 in0.0 mm
12:40 AM 30.4°F-0.9°C 28.9°F-1.7°C 94% Calm Calm -- 29.95 in1014.2 mb - 0.00 in0.0 mm 0.00 in0.0 mm
12:30 AM 30.4°F-0.9°C 28.9°F-1.7°C 94% Calm Calm -- 29.96 in1014.6 mb - 0.00 in0.0 mm 0.00 in0.0 mm
12:20 AM 30.5°F-0.8°C 29.0°F-1.7°C 94% Calm Calm -- 29.97 in1014.9 mb - 0.00 in0.0 mm 0.00 in0.0 mm
12:10 AM 30.6°F-0.8°C 29.1°F-1.6°C 94% Calm Calm -- 29.99 in1015.6 mb - 0.00 in0.0 mm 0.00 in0.0 mm
12:00 AM 30.6°F-0.8°C 29.1°F-1.6°C 94% Calm Calm -- 30.00 in1015.9 mb - 0.00 in0.0 mm 0.00 in0.0 mm